Terminal Aerodrome Forecast
Issued by NWS

Home | Current Version | Previous Version | Text Only | Print | Product List | Glossary On
Versions: 1 2 3 4 5 6 7 8 9 10 11 12 13 14 15 16 17 18 19 20 21 22 23 24 25
000
FTUS41 KCLE 042300 RRA
TAFFDY
TAF
KFDY 042349Z 0500/0524 31010KT P6SM BKN100 OVC200
     FM050600 33010KT P6SM SCT100 BKN250
     FM051400 33006KT P6SM SCT035 OVC150=

USA.gov is the U.S. government's official web portal to all federal, state and local government web resources and services.